createdAt,value
2019-06-07T00:01:50.639Z,100.00
2019-06-07T00:04:21.513Z,100.00
2019-06-07T00:06:51.623Z,100.00
2019-06-07T00:09:22.472Z,100.00
2019-06-07T00:11:52.734Z,100.00
2019-06-07T00:14:22.763Z,100.00
2019-06-07T00:16:52.665Z,100.00
2019-06-07T00:19:24.326Z,100.00
2019-06-07T00:22:15.743Z,100.00
2019-06-07T00:24:25.861Z,100.00
2019-06-07T00:26:58.919Z,100.00
2019-06-07T00:29:27.369Z,100.00
2019-06-07T00:31:57.176Z,100.00
2019-06-07T00:34:26.917Z,100.00
2019-06-07T00:36:56.836Z,100.00
2019-06-07T00:39:29.073Z,100.00
2019-06-07T00:41:58.799Z,100.00
2019-06-07T00:44:28.806Z,100.00
2019-06-07T00:46:58.474Z,100.00
2019-06-07T00:49:40.700Z,100.00
2019-06-07T00:51:59.927Z,100.00
2019-06-07T00:54:29.883Z,100.00
2019-06-07T00:56:59.741Z,100.00
2019-06-07T00:59:29.912Z,100.00
2019-06-07T01:01:59.937Z,100.00
2019-06-07T01:04:29.719Z,100.00
2019-06-07T01:06:59.634Z,100.00
2019-06-07T01:09:29.563Z,100.00
2019-06-07T01:11:59.709Z,100.00
2019-06-07T01:14:29.473Z,100.00
2019-06-07T01:17:22.239Z,100.00
2019-06-07T01:19:30.992Z,100.00
2019-06-07T01:22:00.653Z,100.00
2019-06-07T01:24:30.556Z,100.00
2019-06-07T01:27:00.534Z,100.00
2019-06-07T01:29:31.204Z,100.00
2019-06-07T01:32:01.086Z,100.00
2019-06-07T01:34:30.900Z,100.00
2019-06-07T01:37:00.578Z,100.00
2019-06-07T01:39:31.878Z,100.00
2019-06-07T01:42:02.004Z,100.00
2019-06-07T01:44:31.977Z,100.00
2019-06-07T01:47:01.891Z,100.00
2019-06-07T01:49:31.735Z,100.00
2019-06-07T01:52:01.508Z,100.00
2019-06-07T01:57:02.864Z,100.00
2019-06-07T01:59:32.910Z,100.00
2019-06-07T02:02:02.847Z,100.00
2019-06-07T02:04:33.496Z,100.00
2019-06-07T02:07:03.671Z,100.00
2019-06-07T02:09:33.668Z,100.00
2019-06-07T02:12:24.636Z,100.00
2019-06-07T02:14:36.097Z,100.00
2019-06-07T02:17:05.967Z,100.00
2019-06-07T02:19:35.953Z,100.00
2019-06-07T02:22:05.908Z,100.00
2019-06-07T02:24:36.618Z,100.00
2019-06-07T02:27:06.710Z,100.00
2019-06-07T02:29:36.667Z,100.00
2019-06-07T02:32:06.448Z,100.00
2019-06-07T02:34:39.556Z,100.00
2019-06-07T02:37:08.037Z,100.00
2019-06-07T02:39:40.811Z,100.00
2019-06-07T02:42:09.264Z,100.00
2019-06-07T02:44:40.321Z,100.00
2019-06-07T02:47:10.323Z,100.00
2019-06-07T02:49:42.034Z,100.00
2019-06-07T02:52:13.253Z,100.00
2019-06-07T02:54:43.178Z,100.00
2019-06-07T02:57:12.960Z,100.00
2019-06-07T03:00:05.745Z,100.00
2019-06-07T03:02:14.845Z,100.00
2019-06-07T03:04:45.102Z,100.00
2019-06-07T03:07:16.228Z,100.00
2019-06-07T03:09:47.033Z,100.00
2019-06-07T03:12:19.205Z,100.00
2019-06-07T03:14:49.405Z,100.00
2019-06-07T03:17:40.844Z,100.00
2019-06-07T03:20:12.893Z,100.00
2019-06-07T03:22:43.893Z,100.00
2019-06-07T03:25:13.794Z,100.00
2019-06-07T03:27:49.949Z,100.00
2019-06-07T03:32:49.536Z,100.00
2019-06-07T03:35:19.579Z,100.00
2019-06-07T03:37:49.436Z,100.00
2019-06-07T03:40:19.358Z,100.00
2019-06-07T03:42:49.319Z,100.00
2019-06-07T03:45:19.207Z,100.00
2019-06-07T03:47:49.156Z,100.00
2019-06-07T03:50:18.962Z,100.00
2019-06-07T03:52:48.722Z,100.00
2019-06-07T03:55:18.590Z,100.00
2019-06-07T03:58:30.137Z,100.00
2019-06-07T04:00:20.008Z,100.00
2019-06-07T04:02:49.861Z,100.00
2019-06-07T04:05:19.541Z,100.00
2019-06-07T04:07:49.382Z,100.00
2019-06-07T04:10:19.018Z,100.00
2019-06-07T04:12:48.773Z,100.00
2019-06-07T04:15:18.795Z,100.00
2019-06-07T04:18:01.346Z,100.00
2019-06-07T04:20:20.259Z,100.00
2019-06-07T04:22:50.128Z,100.00
2019-06-07T04:25:20.018Z,100.00
2019-06-07T04:27:49.828Z,100.00
2019-06-07T04:30:39.561Z,100.00
2019-06-07T04:33:10.039Z,100.00
2019-06-07T04:35:43.121Z,100.00
2019-06-07T04:38:14.512Z,100.00
2019-06-07T04:40:44.828Z,100.00
2019-06-07T04:43:14.603Z,100.00
2019-06-07T04:45:50.876Z,100.00
2019-06-07T04:48:16.071Z,100.00
2019-06-07T04:50:47.655Z,100.00
2019-06-07T04:53:17.553Z,100.00
2019-06-07T04:55:47.481Z,100.00
2019-06-07T04:58:17.384Z,100.00
2019-06-07T05:00:54.124Z,100.00
2019-06-07T05:03:18.912Z,100.00
2019-06-07T05:05:48.902Z,100.00
2019-06-07T05:08:28.001Z,100.00
2019-06-07T05:10:50.284Z,99.22
2019-06-07T05:13:20.204Z,97.16
2019-06-07T05:15:49.975Z,93.43
2019-06-07T05:18:19.821Z,91.32
2019-06-07T05:20:49.555Z,90.31
2019-06-07T05:24:00.122Z,90.92
2019-06-07T05:25:51.093Z,89.92
2019-06-07T05:28:21.024Z,87.97
2019-06-07T05:31:03.790Z,86.36
2019-06-07T05:33:22.746Z,84.85
2019-06-07T05:35:52.706Z,83.66
2019-06-07T05:38:22.507Z,86.72
2019-06-07T05:40:52.372Z,90.14
2019-06-07T05:43:29.203Z,91.36
2019-06-07T05:45:59.200Z,92.39
2019-06-07T05:48:28.936Z,93.47
2019-06-07T05:50:58.664Z,93.81
2019-06-07T05:53:28.748Z,91.21
2019-06-07T05:55:58.480Z,89.97
2019-06-07T05:58:28.207Z,87.15
2019-06-07T06:01:41.035Z,84.11
2019-06-07T06:03:29.714Z,80.48
2019-06-07T06:05:59.482Z,79.95
2019-06-07T06:08:29.307Z,78.61
2019-06-07T06:10:59.189Z,81.01
2019-06-07T06:13:29.122Z,79.11
2019-06-07T06:16:01.981Z,77.11
2019-06-07T06:18:31.729Z,75.74
2019-06-07T06:21:16.048Z,76.09
2019-06-07T06:23:33.096Z,74.37
2019-06-07T06:26:02.957Z,73.29
2019-06-07T06:28:32.823Z,73.85
2019-06-07T06:31:02.580Z,74.38
2019-06-07T06:33:34.751Z,76.62
2019-06-07T06:36:04.213Z,77.37
2019-06-07T06:38:34.042Z,79.82
2019-06-07T06:41:15.076Z,77.13
2019-06-07T06:43:35.514Z,76.05
2019-06-07T06:46:05.512Z,76.53
2019-06-07T06:48:35.464Z,74.74
2019-06-07T06:51:05.404Z,75.35
2019-06-07T06:53:35.175Z,76.31
2019-06-07T06:56:05.023Z,75.85
2019-06-07T06:59:18.675Z,73.97
2019-06-07T07:01:07.276Z,70.61
2019-06-07T07:03:57.430Z,68.77
2019-06-07T07:06:25.332Z,67.15
2019-06-07T07:08:44.266Z,65.47
2019-06-07T07:11:14.858Z,64.19
2019-06-07T07:13:49.201Z,64.04
2019-06-07T07:16:16.649Z,63.40
2019-06-07T07:18:47.600Z,62.73
2019-06-07T07:21:18.873Z,62.18
2019-06-07T07:24:15.173Z,62.57
2019-06-07T07:26:20.399Z,61.94
2019-06-07T07:28:54.014Z,62.56
2019-06-07T07:31:21.969Z,62.13
2019-06-07T07:34:30.893Z,61.46
2019-06-07T07:36:38.926Z,62.60
2019-06-07T07:39:04.495Z,61.69
2019-06-07T07:41:28.431Z,60.56
2019-06-07T07:44:05.819Z,60.19
2019-06-07T07:46:30.634Z,59.85
2019-06-07T07:49:00.727Z,60.17
2019-06-07T07:51:30.505Z,59.79
2019-06-07T07:54:10.234Z,59.34
2019-06-07T07:56:32.219Z,56.44
2019-06-07T07:59:02.832Z,55.90
2019-06-07T08:01:32.823Z,54.63
2019-06-07T08:04:02.583Z,53.93
2019-06-07T08:06:32.471Z,53.45
2019-06-07T08:09:02.300Z,51.23
2019-06-07T08:11:32.525Z,50.46
2019-06-07T08:14:02.427Z,49.50
2019-06-07T08:16:32.601Z,47.84
2019-06-07T08:19:04.295Z,46.59
2019-06-07T08:21:34.031Z,46.15
2019-06-07T08:24:05.340Z,46.51
2019-06-07T08:26:35.400Z,46.92
2019-06-07T08:29:05.415Z,45.74
2019-06-07T08:31:35.944Z,45.19
2019-06-07T08:34:06.053Z,45.76
2019-06-07T08:36:42.310Z,46.53
2019-06-07T08:39:09.201Z,47.52
2019-06-07T08:41:53.493Z,48.62
2019-06-07T08:44:23.170Z,48.74
2019-06-07T08:46:42.301Z,48.96
2019-06-07T08:49:12.155Z,48.81
2019-06-07T08:51:43.282Z,49.04
2019-06-07T08:54:22.469Z,49.02
2019-06-07T08:56:44.415Z,49.89
2019-06-07T08:59:14.283Z,49.41
2019-06-07T09:01:44.046Z,49.29
2019-06-07T09:04:13.908Z,49.50
2019-06-07T09:09:15.421Z,48.83
2019-06-07T09:11:45.308Z,48.88
2019-06-07T09:14:15.167Z,48.47
2019-06-07T09:16:45.005Z,48.43
2019-06-07T09:19:14.953Z,47.64
2019-06-07T09:21:44.760Z,46.31
2019-06-07T09:24:14.431Z,46.03
2019-06-07T09:26:44.334Z,46.33
2019-06-07T09:29:14.336Z,46.88
2019-06-07T09:31:52.610Z,47.24
2019-06-07T09:34:16.077Z,46.90
2019-06-07T09:36:46.033Z,47.48
2019-06-07T09:39:15.997Z,47.18
2019-06-07T09:41:50.125Z,46.38
2019-06-07T09:44:24.626Z,47.91
2019-06-07T09:47:07.902Z,48.50
2019-06-07T09:49:31.437Z,48.18
2019-06-07T09:51:52.034Z,46.75
2019-06-07T09:55:04.127Z,46.57
2019-06-07T09:56:53.417Z,46.71
2019-06-07T09:59:23.300Z,46.74
2019-06-07T10:01:53.056Z,46.46
2019-06-07T10:04:31.312Z,46.29
2019-06-07T10:06:54.400Z,46.46
2019-06-07T10:11:55.822Z,46.97
2019-06-07T10:14:25.687Z,47.44
2019-06-07T10:16:55.600Z,48.63
2019-06-07T10:19:25.543Z,49.56
2019-06-07T10:21:55.415Z,49.18
2019-06-07T10:24:26.110Z,49.38
2019-06-07T10:26:55.793Z,49.38
2019-06-07T10:29:25.600Z,48.97
2019-06-07T10:31:55.558Z,48.50
2019-06-07T10:34:25.437Z,48.55
2019-06-07T10:36:55.344Z,48.27
2019-06-07T10:39:25.222Z,47.72
2019-06-07T10:41:54.860Z,47.69
2019-06-07T10:44:24.561Z,47.63
2019-06-07T10:46:54.431Z,47.56
2019-06-07T10:49:24.325Z,47.85
2019-06-07T10:51:54.235Z,47.25
2019-06-07T10:54:29.785Z,47.12
2019-06-07T10:56:55.787Z,46.75
2019-06-07T10:59:25.732Z,45.04
2019-06-07T11:01:55.458Z,45.11
2019-06-07T11:04:25.370Z,46.38
2019-06-07T11:06:55.243Z,47.21
2019-06-07T11:09:25.020Z,47.83
2019-06-07T11:11:54.897Z,47.02
2019-06-07T11:14:24.597Z,45.45
2019-06-07T11:16:54.579Z,43.17
2019-06-07T11:19:24.346Z,44.27
2019-06-07T11:21:54.234Z,44.44
2019-06-07T11:24:24.838Z,43.92
2019-06-07T11:26:55.164Z,43.44
2019-06-07T11:29:24.822Z,43.25
2019-06-07T11:31:54.765Z,41.98
2019-06-07T11:34:24.707Z,42.06
2019-06-07T11:36:54.476Z,43.09
2019-06-07T11:39:24.270Z,43.58
2019-06-07T11:41:54.037Z,43.68
2019-06-07T11:44:23.817Z,42.80
2019-06-07T11:46:53.770Z,42.35
2019-06-07T11:49:24.910Z,42.24
2019-06-07T11:51:54.682Z,42.08
2019-06-07T11:54:24.615Z,41.93
2019-06-07T11:56:55.646Z,41.21
2019-06-07T11:59:25.502Z,40.35
2019-06-07T12:01:55.158Z,39.15
2019-06-07T12:04:34.430Z,37.38
2019-06-07T12:06:57.791Z,35.69
2019-06-07T12:09:28.168Z,34.74
2019-06-07T12:11:58.170Z,32.43
2019-06-07T12:14:28.048Z,32.11
2019-06-07T12:16:57.855Z,32.76
2019-06-07T12:19:27.614Z,30.89
2019-06-07T12:21:57.517Z,31.27
2019-06-07T12:24:27.083Z,28.91
2019-06-07T12:26:56.953Z,32.03
2019-06-07T12:29:26.749Z,33.85
2019-06-07T12:31:56.540Z,32.56
2019-06-07T12:34:26.470Z,32.38
2019-06-07T12:36:56.423Z,32.26
2019-06-07T12:39:26.329Z,32.01
2019-06-07T12:41:57.455Z,31.35
2019-06-07T12:44:27.332Z,30.45
2019-06-07T12:46:56.951Z,30.36
2019-06-07T12:49:28.572Z,30.02
2019-06-07T12:51:58.337Z,30.10
2019-06-07T12:54:28.263Z,29.62
2019-06-07T12:56:58.093Z,29.46
2019-06-07T12:59:27.966Z,29.70
2019-06-07T13:02:02.312Z,29.43
2019-06-07T13:04:29.456Z,29.30
2019-06-07T13:06:59.165Z,28.58
2019-06-07T13:09:29.040Z,29.45
2019-06-07T13:11:58.776Z,28.62
2019-06-07T13:14:28.589Z,31.00
2019-06-07T13:16:58.311Z,30.71
2019-06-07T13:19:28.583Z,28.30
2019-06-07T13:21:58.404Z,29.16
2019-06-07T13:24:28.793Z,30.08
2019-06-07T13:26:59.833Z,28.97
2019-06-07T13:29:32.319Z,28.21
2019-06-07T13:32:03.407Z,27.60
2019-06-07T13:34:33.187Z,27.11
2019-06-07T13:37:03.113Z,26.85
2019-06-07T13:39:33.170Z,27.27
2019-06-07T13:42:03.021Z,27.63
2019-06-07T13:44:33.052Z,26.52
2019-06-07T13:47:02.921Z,25.27
2019-06-07T13:49:32.563Z,25.35
2019-06-07T13:52:02.477Z,23.75
2019-06-07T13:54:32.886Z,24.84
2019-06-07T13:57:03.384Z,25.38
2019-06-07T13:59:33.265Z,27.03
2019-06-07T14:02:04.383Z,27.57
2019-06-07T14:04:34.005Z,28.49
2019-06-07T14:07:03.961Z,29.18
2019-06-07T14:09:33.880Z,28.30
2019-06-07T14:12:03.660Z,28.16
2019-06-07T14:14:33.590Z,28.73
2019-06-07T14:17:05.251Z,27.79
2019-06-07T14:19:34.938Z,27.26
2019-06-07T14:22:04.718Z,27.74
2019-06-07T14:24:34.506Z,29.03
2019-06-07T14:27:07.066Z,29.34
2019-06-07T14:29:38.004Z,29.36
2019-06-07T14:32:08.446Z,26.86
2019-06-07T14:34:38.305Z,26.23
2019-06-07T14:37:08.575Z,25.97
2019-06-07T14:39:38.392Z,25.66
2019-06-07T14:42:10.362Z,25.64
2019-06-07T14:44:39.845Z,24.70
2019-06-07T14:47:09.550Z,24.41
2019-06-07T14:49:39.333Z,26.27
2019-06-07T14:52:08.990Z,26.50
2019-06-07T14:54:39.485Z,25.37
2019-06-07T14:57:09.379Z,26.00
2019-06-07T14:59:39.246Z,25.12
2019-06-07T15:02:09.161Z,26.17
2019-06-07T15:04:42.159Z,26.62
2019-06-07T15:07:15.769Z,27.19
2019-06-07T15:09:45.679Z,27.49
2019-06-07T15:12:25.044Z,26.98
2019-06-07T15:14:48.261Z,27.21
2019-06-07T15:17:18.075Z,26.95
2019-06-07T15:19:49.280Z,27.19
2019-06-07T15:22:19.050Z,26.29
2019-06-07T15:24:48.874Z,26.20
2019-06-07T15:27:18.982Z,25.63
2019-06-07T15:29:48.890Z,25.95
2019-06-07T15:32:18.801Z,24.93
2019-06-07T15:34:48.471Z,26.63
2019-06-07T15:37:18.356Z,26.99
2019-06-07T15:39:48.090Z,25.89
2019-06-07T15:42:17.867Z,27.64
2019-06-07T15:44:47.674Z,27.80
2019-06-07T15:47:18.758Z,28.30
2019-06-07T15:49:48.639Z,28.13
2019-06-07T15:52:19.737Z,28.85
2019-06-07T15:54:49.585Z,29.31
2019-06-07T15:57:19.386Z,28.92
2019-06-07T15:59:49.121Z,29.77
2019-06-07T16:02:20.085Z,29.37
2019-06-07T16:04:49.886Z,29.30
2019-06-07T16:07:19.739Z,31.63
2019-06-07T16:09:49.521Z,35.73
2019-06-07T16:12:19.339Z,37.57
2019-06-07T16:14:49.404Z,36.58
2019-06-07T16:17:19.183Z,37.46
2019-06-07T16:19:48.895Z,37.09
2019-06-07T16:22:18.621Z,35.57
2019-06-07T16:24:48.519Z,34.53
2019-06-07T16:27:18.432Z,34.26
2019-06-07T16:29:48.487Z,33.17
2019-06-07T16:32:19.473Z,33.79
2019-06-07T16:34:49.092Z,33.34
2019-06-07T16:37:19.069Z,35.17
2019-06-07T16:39:48.823Z,34.27
2019-06-07T16:42:18.736Z,35.52
2019-06-07T16:44:48.966Z,36.71
2019-06-07T16:47:18.997Z,37.60
2019-06-07T16:49:49.190Z,36.84
2019-06-07T16:52:19.077Z,37.81
2019-06-07T16:54:48.839Z,37.56
2019-06-07T16:57:18.634Z,36.88
2019-06-07T16:59:50.496Z,38.47
2019-06-07T17:02:20.113Z,40.06
2019-06-07T17:04:51.186Z,41.02
2019-06-07T17:07:20.288Z,43.21
2019-06-07T17:09:50.142Z,43.75
2019-06-07T17:12:20.105Z,44.22
2019-06-07T17:14:49.907Z,45.77
2019-06-07T17:17:19.706Z,46.61
2019-06-07T17:19:49.435Z,48.23
2019-06-07T17:22:19.287Z,51.04
2019-06-07T17:24:49.887Z,54.31
2019-06-07T17:27:19.981Z,54.97
2019-06-07T17:29:50.104Z,55.15
2019-06-07T17:32:20.123Z,55.77
2019-06-07T17:34:50.425Z,57.11
2019-06-07T17:37:20.505Z,58.81
2019-06-07T17:39:50.950Z,61.13
2019-06-07T17:42:20.639Z,64.71
2019-06-07T17:44:51.465Z,66.41
2019-06-07T17:47:21.511Z,70.14
2019-06-07T17:49:52.242Z,72.51
2019-06-07T17:52:22.102Z,73.52
2019-06-07T17:54:52.441Z,74.68
2019-06-07T17:57:22.314Z,75.13
2019-06-07T17:59:52.696Z,73.92
2019-06-07T18:02:22.547Z,72.33
2019-06-07T18:04:53.621Z,72.75
2019-06-07T18:07:24.767Z,72.23
2019-06-07T18:09:55.888Z,72.49
2019-06-07T18:12:25.582Z,73.98
2019-06-07T18:14:55.782Z,76.41
2019-06-07T18:17:34.701Z,79.37
2019-06-07T18:19:57.423Z,80.71
2019-06-07T18:22:27.318Z,81.72
2019-06-07T18:24:57.370Z,80.58
2019-06-07T18:27:27.354Z,79.81
2019-06-07T18:29:57.358Z,79.59
2019-06-07T18:32:28.651Z,81.81
2019-06-07T18:35:00.257Z,84.18
2019-06-07T18:37:30.049Z,84.44
2019-06-07T18:40:00.361Z,84.52
2019-06-07T18:42:30.212Z,83.46
2019-06-07T18:45:00.155Z,83.22
2019-06-07T18:47:30.239Z,83.89
2019-06-07T18:50:00.190Z,83.27
2019-06-07T18:52:33.488Z,83.53
2019-06-07T18:55:03.225Z,82.70
2019-06-07T18:57:33.007Z,82.41
2019-06-07T19:00:03.081Z,82.87
2019-06-07T19:02:32.923Z,82.52
2019-06-07T19:05:02.970Z,82.23
2019-06-07T19:07:32.823Z,81.57
2019-06-07T19:10:02.797Z,80.61
2019-06-07T19:12:32.617Z,80.50
2019-06-07T19:15:02.543Z,79.11
2019-06-07T19:17:32.440Z,78.37
2019-06-07T19:20:03.489Z,78.87
2019-06-07T19:22:33.224Z,79.35
2019-06-07T19:25:02.897Z,79.80
2019-06-07T19:27:33.163Z,80.17
2019-06-07T19:30:03.300Z,78.30
2019-06-07T19:32:33.395Z,78.93
2019-06-07T19:35:03.291Z,78.41
2019-06-07T19:37:34.584Z,78.59
2019-06-07T19:40:04.837Z,78.37
2019-06-07T19:42:34.495Z,77.51
2019-06-07T19:45:27.059Z,77.03
2019-06-07T19:47:36.996Z,78.52
2019-06-07T19:50:07.290Z,78.59
2019-06-07T19:52:38.573Z,78.49
2019-06-07T19:55:09.943Z,78.76
2019-06-07T19:57:41.040Z,76.28
2019-06-07T20:00:14.953Z,74.86
2019-06-07T20:02:43.323Z,73.32
2019-06-07T20:05:14.585Z,71.95
2019-06-07T20:07:45.771Z,72.67
2019-06-07T20:10:16.135Z,73.51
2019-06-07T20:12:46.012Z,73.33
2019-06-07T20:15:28.523Z,73.88
2019-06-07T20:17:48.534Z,74.01
2019-06-07T20:20:19.077Z,74.26
2019-06-07T20:22:48.814Z,73.88
2019-06-07T20:25:19.496Z,73.25
2019-06-07T20:27:49.367Z,73.63
2019-06-07T20:30:20.466Z,74.18
2019-06-07T20:32:50.156Z,73.92
2019-06-07T20:35:20.251Z,74.66
2019-06-07T20:37:49.930Z,73.93
2019-06-07T20:40:24.532Z,73.68
2019-06-07T20:42:52.659Z,73.08
2019-06-07T20:45:32.969Z,72.53
2019-06-07T20:47:53.928Z,71.04
2019-06-07T20:50:23.630Z,70.82
2019-06-07T20:52:53.476Z,70.72
2019-06-07T20:55:23.247Z,70.58
2019-06-07T20:57:52.953Z,70.25
2019-06-07T21:00:23.352Z,69.80
2019-06-07T21:02:53.208Z,68.92
2019-06-07T21:05:23.020Z,68.44
2019-06-07T21:07:52.893Z,68.21
2019-06-07T21:10:23.069Z,68.75
2019-06-07T21:12:52.895Z,68.74
2019-06-07T21:15:22.865Z,69.44
2019-06-07T21:17:52.855Z,70.38
2019-06-07T21:20:22.638Z,71.60
2019-06-07T21:22:52.715Z,73.03
2019-06-07T21:25:22.479Z,73.79
2019-06-07T21:27:52.392Z,74.31
2019-06-07T21:30:22.656Z,75.41
2019-06-07T21:32:52.411Z,76.12
2019-06-07T21:35:22.120Z,76.64
2019-06-07T21:37:52.002Z,77.53
2019-06-07T21:40:21.649Z,77.07
2019-06-07T21:42:51.484Z,79.64
2019-06-07T21:45:21.396Z,79.83
2019-06-07T21:47:51.196Z,80.00
2019-06-07T21:50:21.423Z,82.41
2019-06-07T21:52:51.132Z,83.80
2019-06-07T21:55:21.216Z,85.00
2019-06-07T21:57:51.088Z,88.49
2019-06-07T22:00:26.781Z,88.34
2019-06-07T22:02:56.525Z,89.09
2019-06-07T22:05:26.144Z,89.36
2019-06-07T22:07:56.000Z,89.35
2019-06-07T22:10:26.514Z,90.00
2019-06-07T22:12:56.412Z,89.52
2019-06-07T22:15:33.988Z,89.02
2019-06-07T22:17:57.974Z,89.36
2019-06-07T22:20:27.827Z,89.87
2019-06-07T22:22:57.778Z,89.95
2019-06-07T22:25:27.646Z,85.08
2019-06-07T22:27:57.672Z,83.82
2019-06-07T22:30:27.643Z,84.40
2019-06-07T22:32:57.410Z,85.09
2019-06-07T22:35:27.459Z,85.04
2019-06-07T22:37:57.218Z,84.98
2019-06-07T22:40:27.157Z,85.55
2019-06-07T22:42:57.111Z,85.72
2019-06-07T22:45:26.973Z,86.92
2019-06-07T22:47:58.133Z,86.81
2019-06-07T22:50:27.977Z,87.81
2019-06-07T22:52:57.838Z,88.49
2019-06-07T22:55:27.785Z,89.18
2019-06-07T22:58:00.136Z,90.09
2019-06-07T23:00:31.730Z,91.30
2019-06-07T23:03:01.665Z,92.33
2019-06-07T23:05:31.588Z,93.42
2019-06-07T23:08:01.444Z,93.87
2019-06-07T23:10:31.265Z,94.69
2019-06-07T23:13:01.115Z,95.04
2019-06-07T23:15:30.802Z,95.27
2019-06-07T23:18:00.544Z,95.61
2019-06-07T23:20:30.221Z,96.16
2019-06-07T23:23:00.279Z,96.74
2019-06-07T23:25:30.184Z,97.09
2019-06-07T23:27:59.980Z,97.33
2019-06-07T23:30:29.976Z,97.33
2019-06-07T23:32:59.780Z,97.76
2019-06-07T23:35:29.601Z,98.76
2019-06-07T23:37:59.320Z,100.00
2019-06-07T23:40:29.139Z,100.00
2019-06-07T23:42:58.892Z,100.00
2019-06-07T23:45:28.847Z,100.00
2019-06-07T23:47:58.581Z,100.00
2019-06-07T23:50:28.516Z,100.00
2019-06-07T23:52:58.454Z,100.00
2019-06-07T23:55:29.662Z,100.00
2019-06-07T23:57:59.578Z,100.00
